createdAt,value
2019-05-02T00:01:03.681Z,88.12
2019-05-02T00:05:07.603Z,88.22
2019-05-02T00:09:11.132Z,87.82
2019-05-02T00:13:13.549Z,88.15
2019-05-02T00:17:20.219Z,88.25
2019-05-02T00:21:19.610Z,87.88
2019-05-02T00:25:21.484Z,88.29
2019-05-02T00:29:25.070Z,88.19
2019-05-02T00:33:29.233Z,88.08
2019-05-02T00:37:30.878Z,88.16
2019-05-02T00:41:33.217Z,88.29
2019-05-02T00:45:36.389Z,88.17
2019-05-02T00:49:38.357Z,87.88
2019-05-02T00:53:44.471Z,88.09
2019-05-02T00:57:46.179Z,87.84
2019-05-02T01:02:07.225Z,87.69
2019-05-02T01:06:14.470Z,87.97
2019-05-02T01:10:17.329Z,87.83
2019-05-02T01:14:18.142Z,87.78
2019-05-02T01:18:22.271Z,87.94
2019-05-02T01:22:24.452Z,87.94
2019-05-02T01:26:29.453Z,88.15
2019-05-02T01:30:50.777Z,87.90
2019-05-02T01:35:01.988Z,87.97
2019-05-02T01:39:09.422Z,88.37
2019-05-02T01:43:29.380Z,88.27
2019-05-02T01:47:34.116Z,88.24
2019-05-02T01:51:36.789Z,87.84
2019-05-02T01:55:38.576Z,87.90
2019-05-02T01:59:40.366Z,87.78
2019-05-02T02:03:45.701Z,87.71
2019-05-02T02:07:45.814Z,88.14
2019-05-02T02:11:47.925Z,88.13
2019-05-02T02:15:49.857Z,88.02
2019-05-02T02:19:56.008Z,88.08
2019-05-02T02:24:26.389Z,87.87
2019-05-02T02:28:31.981Z,87.67
2019-05-02T02:32:32.338Z,87.98
2019-05-02T02:36:34.998Z,87.51
2019-05-02T02:40:37.096Z,87.64
2019-05-02T02:44:46.218Z,87.06
2019-05-02T02:48:51.035Z,87.42
2019-05-02T02:52:53.265Z,87.43
2019-05-02T02:56:55.114Z,87.18
2019-05-02T03:00:57.305Z,86.78
2019-05-02T03:04:59.363Z,86.93
2019-05-02T03:09:01.722Z,86.89
2019-05-02T03:13:51.293Z,87.06
2019-05-02T03:17:37.740Z,87.19
2019-05-02T03:21:54.338Z,87.14
2019-05-02T03:25:57.135Z,87.70
2019-05-02T03:29:59.239Z,87.46
2019-05-02T03:34:01.755Z,87.71
2019-05-02T03:38:03.768Z,87.41
2019-05-02T03:42:05.835Z,87.34
2019-05-02T03:46:13.654Z,86.99
2019-05-02T03:50:12.599Z,87.15
2019-05-02T03:54:19.617Z,86.33
2019-05-02T03:58:19.883Z,87.08
2019-05-02T04:02:22.715Z,87.17
2019-05-02T04:06:25.034Z,87.26
2019-05-02T04:11:22.814Z,87.00
2019-05-02T04:15:28.680Z,86.43
2019-05-02T04:19:34.937Z,86.62
2019-05-02T04:23:33.895Z,86.83
2019-05-02T04:27:37.531Z,87.09
2019-05-02T04:31:40.007Z,86.82
2019-05-02T04:35:42.316Z,87.14
2019-05-02T04:39:44.653Z,86.74
2019-05-02T04:43:54.596Z,86.78
2019-05-02T04:47:58.991Z,86.67
2019-05-02T04:52:04.479Z,86.85
2019-05-02T04:56:04.362Z,86.52
2019-05-02T05:00:08.645Z,85.22
2019-05-02T05:04:08.248Z,83.32
2019-05-02T05:08:11.306Z,83.38
2019-05-02T05:12:13.421Z,83.74
2019-05-02T05:16:15.947Z,82.92
2019-05-02T05:20:19.733Z,83.10
2019-05-02T05:24:53.065Z,81.64
2019-05-02T05:28:55.118Z,81.09
2019-05-02T05:32:58.335Z,80.80
2019-05-02T05:37:03.680Z,80.50
2019-05-02T05:41:09.093Z,78.04
2019-05-02T05:45:13.737Z,78.13
2019-05-02T05:49:18.430Z,79.24
2019-05-02T05:53:21.348Z,79.99
2019-05-02T05:57:23.009Z,80.06
2019-05-02T06:01:26.145Z,79.21
2019-05-02T06:05:33.236Z,79.05
2019-05-02T06:09:32.885Z,79.52
2019-05-02T06:13:37.886Z,79.22
2019-05-02T06:17:39.212Z,79.99
2019-05-02T06:21:45.249Z,80.25
2019-05-02T06:25:45.418Z,78.84
2019-05-02T06:29:51.084Z,80.03
2019-05-02T06:33:51.579Z,79.99
2019-05-02T06:37:53.621Z,79.17
2019-05-02T06:41:57.535Z,78.50
2019-05-02T06:45:59.607Z,77.93
2019-05-02T06:50:02.770Z,77.52
2019-05-02T06:54:06.264Z,76.54
2019-05-02T06:58:08.523Z,75.62
2019-05-02T07:02:10.656Z,76.21
2019-05-02T07:06:13.019Z,75.71
2019-05-02T07:10:20.039Z,76.81
2019-05-02T07:14:23.691Z,77.17
2019-05-02T07:18:24.658Z,76.86
2019-05-02T07:22:26.937Z,72.55
2019-05-02T07:26:29.184Z,72.54
2019-05-02T07:30:35.033Z,72.30
2019-05-02T07:34:36.877Z,70.76
2019-05-02T07:38:39.137Z,71.58
2019-05-02T07:42:41.807Z,70.20
2019-05-02T07:46:51.593Z,70.48
2019-05-02T07:50:48.837Z,70.92
2019-05-02T07:54:51.142Z,72.90
2019-05-02T07:58:53.280Z,72.09
2019-05-02T08:02:57.971Z,72.50
2019-05-02T08:07:00.397Z,71.42
2019-05-02T08:11:03.284Z,72.20
2019-05-02T08:15:12.427Z,72.48
2019-05-02T08:19:11.133Z,73.12
2019-05-02T08:23:13.668Z,74.36
2019-05-02T08:27:41.747Z,73.88
2019-05-02T08:31:45.367Z,74.72
2019-05-02T08:35:47.965Z,74.60
2019-05-02T08:39:51.826Z,74.61
2019-05-02T08:43:53.741Z,73.91
2019-05-02T08:47:55.720Z,73.04
2019-05-02T08:51:58.113Z,73.95
2019-05-02T08:56:00.430Z,74.67
2019-05-02T09:00:02.758Z,73.73
2019-05-02T09:04:07.008Z,72.31
2019-05-02T09:08:13.856Z,73.48
2019-05-02T09:12:15.099Z,72.07
2019-05-02T09:16:23.732Z,72.06
2019-05-02T09:20:23.659Z,73.25
2019-05-02T09:24:25.935Z,72.59
2019-05-02T09:28:27.954Z,72.98
2019-05-02T09:32:32.180Z,73.35
2019-05-02T09:36:34.042Z,72.80
2019-05-02T09:40:37.332Z,73.69
2019-05-02T09:44:39.376Z,74.03
2019-05-02T09:48:42.650Z,74.88
2019-05-02T09:52:45.156Z,75.32
2019-05-02T09:56:47.452Z,75.79
2019-05-02T10:01:14.560Z,78.13
2019-05-02T10:05:17.246Z,76.79
2019-05-02T10:09:24.358Z,77.37
2019-05-02T10:13:23.245Z,78.21
2019-05-02T10:17:26.420Z,74.92
2019-05-02T10:21:28.797Z,75.48
2019-05-02T10:25:38.488Z,77.10
2019-05-02T10:29:35.144Z,76.86
2019-05-02T10:33:37.739Z,77.23
2019-05-02T10:37:42.921Z,77.00
2019-05-02T10:41:44.508Z,76.33
2019-05-02T10:45:52.807Z,76.98
2019-05-02T10:49:58.552Z,77.71
2019-05-02T10:54:02.269Z,78.51
2019-05-02T10:58:04.493Z,79.01
2019-05-02T11:02:32.749Z,78.11
2019-05-02T11:06:37.168Z,78.31
2019-05-02T11:10:38.914Z,79.66
2019-05-02T11:14:46.427Z,79.33
2019-05-02T11:19:07.328Z,77.94
2019-05-02T11:23:09.589Z,76.00
2019-05-02T11:27:12.820Z,77.32
2019-05-02T11:31:15.169Z,76.04
2019-05-02T11:35:17.486Z,77.02
2019-05-02T11:39:26.903Z,75.18
2019-05-02T11:43:23.302Z,75.19
2019-05-02T11:47:26.618Z,74.39
2019-05-02T11:51:28.958Z,74.27
2019-05-02T11:55:31.927Z,76.61
2019-05-02T11:59:33.995Z,75.39
2019-05-02T12:03:44.815Z,76.80
2019-05-02T12:07:46.856Z,77.46
2019-05-02T12:11:54.995Z,77.69
2019-05-02T12:15:54.246Z,77.77
2019-05-02T12:19:56.537Z,77.43
2019-05-02T12:23:58.590Z,78.54
2019-05-02T12:28:02.287Z,79.18
2019-05-02T12:32:04.610Z,78.46
2019-05-02T12:36:09.073Z,79.03
2019-05-02T12:40:12.316Z,77.86
2019-05-02T12:44:14.969Z,78.20
2019-05-02T12:48:17.642Z,77.12
2019-05-02T12:52:19.854Z,77.01
2019-05-02T12:56:22.974Z,75.26
2019-05-02T13:00:25.313Z,76.97
2019-05-02T13:04:27.372Z,77.68
2019-05-02T13:08:29.486Z,78.50
2019-05-02T13:12:35.084Z,79.22
2019-05-02T13:16:37.105Z,80.13
2019-05-02T13:20:41.666Z,79.13
2019-05-02T13:24:54.030Z,80.24
2019-05-02T13:28:51.693Z,81.10
2019-05-02T13:33:02.403Z,79.18
2019-05-02T13:37:06.888Z,79.56
2019-05-02T13:41:09.322Z,80.71
2019-05-02T13:45:33.775Z,81.64
2019-05-02T13:49:36.110Z,81.45
2019-05-02T13:53:48.287Z,83.26
2019-05-02T13:57:50.393Z,83.68
2019-05-02T14:01:54.362Z,83.32
2019-05-02T14:05:56.501Z,83.22
2019-05-02T14:10:02.466Z,83.57
2019-05-02T14:14:05.059Z,83.84
2019-05-02T14:18:07.481Z,84.00
2019-05-02T14:22:09.618Z,84.07
2019-05-02T14:26:11.779Z,83.94
2019-05-02T14:30:14.708Z,84.38
2019-05-02T14:34:52.866Z,85.04
2019-05-02T14:38:55.216Z,85.67
2019-05-02T14:42:57.784Z,85.84
2019-05-02T14:47:02.128Z,85.63
2019-05-02T14:51:04.816Z,85.71
2019-05-02T14:55:08.051Z,85.76
2019-05-02T14:59:15.309Z,86.30
2019-05-02T15:03:14.328Z,86.33
2019-05-02T15:07:17.577Z,86.31
2019-05-02T15:11:30.417Z,86.35
2019-05-02T15:15:28.003Z,86.17
2019-05-02T15:19:28.309Z,86.36
2019-05-02T15:23:32.380Z,85.93
2019-05-02T15:27:41.852Z,86.58
2019-05-02T15:31:43.139Z,86.26
2019-05-02T15:35:57.285Z,86.21
2019-05-02T15:44:02.635Z,86.65
2019-05-02T15:48:06.846Z,86.45
2019-05-02T15:52:12.489Z,86.52
2019-05-02T15:56:19.839Z,86.68
2019-05-02T16:00:25.866Z,86.69
2019-05-02T16:04:32.178Z,86.76
2019-05-02T16:08:36.164Z,87.33
2019-05-02T16:12:38.824Z,87.30
2019-05-02T16:16:45.087Z,87.65
2019-05-02T16:21:04.174Z,87.07
2019-05-02T16:24:56.745Z,88.28
2019-05-02T16:28:58.805Z,87.65
2019-05-02T16:33:02.865Z,87.75
2019-05-02T16:37:16.577Z,88.13
2019-05-02T16:41:16.552Z,88.41
2019-05-02T16:45:22.223Z,87.94
2019-05-02T16:49:25.107Z,88.01
2019-05-02T16:53:27.569Z,88.30
2019-05-02T16:57:34.871Z,87.57
2019-05-02T17:01:35.476Z,88.01
2019-05-02T17:05:43.599Z,88.56
2019-05-02T17:10:02.978Z,88.33
2019-05-02T17:14:07.045Z,88.27
2019-05-02T17:18:15.335Z,88.28
2019-05-02T17:22:21.950Z,88.20
2019-05-02T17:26:22.823Z,88.18
2019-05-02T17:30:25.703Z,88.43
2019-05-02T17:34:32.579Z,88.17
2019-05-02T17:38:35.624Z,88.36
2019-05-02T17:42:38.107Z,88.16
2019-05-02T17:46:44.672Z,88.45
2019-05-02T17:51:12.255Z,88.26
2019-05-02T17:55:22.843Z,88.32
2019-05-02T17:59:28.350Z,88.47
2019-05-02T18:03:35.160Z,88.87
2019-05-02T18:07:37.085Z,88.35
2019-05-02T18:11:42.386Z,88.27
2019-05-02T18:15:44.774Z,88.71
2019-05-02T18:19:47.272Z,88.46
2019-05-02T18:23:49.500Z,88.86
2019-05-02T18:27:51.911Z,88.94
2019-05-02T18:31:54.678Z,89.08
2019-05-02T18:35:56.904Z,89.23
2019-05-02T18:39:59.141Z,89.24
2019-05-02T18:44:02.820Z,89.55
2019-05-02T18:48:06.976Z,89.54
2019-05-02T18:52:09.395Z,89.33
2019-05-02T18:56:12.441Z,89.04
2019-05-02T19:00:15.193Z,89.17
2019-05-02T19:04:17.727Z,89.57
2019-05-02T19:08:29.098Z,89.34
2019-05-02T19:12:26.028Z,89.47
2019-05-02T19:16:28.871Z,90.04
2019-05-02T19:21:08.856Z,89.94
2019-05-02T19:25:12.107Z,90.13
2019-05-02T19:29:25.778Z,89.64
2019-05-02T19:33:28.134Z,89.67
2019-05-02T19:37:31.639Z,89.38
2019-05-02T19:41:33.916Z,89.66
2019-05-02T19:45:36.321Z,89.61
2019-05-02T19:49:38.900Z,89.79
2019-05-02T19:53:42.616Z,90.17
2019-05-02T19:57:44.930Z,89.90
2019-05-02T20:01:47.121Z,89.40
2019-05-02T20:05:49.281Z,89.12
2019-05-02T20:09:52.450Z,89.34
2019-05-02T20:14:00.480Z,89.10
2019-05-02T20:18:04.756Z,89.42
2019-05-02T20:22:17.974Z,89.22
2019-05-02T20:26:21.985Z,89.37
2019-05-02T20:30:23.916Z,88.99
2019-05-02T20:34:26.077Z,89.15
2019-05-02T20:38:29.932Z,89.10
2019-05-02T20:42:32.279Z,89.33
2019-05-02T20:46:34.381Z,88.78
2019-05-02T20:50:37.565Z,89.03
2019-05-02T20:54:39.865Z,89.12
2019-05-02T20:58:42.160Z,88.95
2019-05-02T21:02:44.438Z,88.50
2019-05-02T21:06:52.896Z,88.63
2019-05-02T21:10:55.761Z,88.49
2019-05-02T21:14:57.886Z,89.02
2019-05-02T21:19:01.895Z,89.01
2019-05-02T21:23:05.304Z,88.43
2019-05-02T21:27:07.636Z,88.80
2019-05-02T21:31:11.989Z,88.68
2019-05-02T21:35:14.052Z,88.98
2019-05-02T21:39:16.481Z,89.01
2019-05-02T21:43:18.854Z,88.63
2019-05-02T21:47:22.552Z,88.07
2019-05-02T21:51:44.000Z,88.52
2019-05-02T21:55:58.440Z,88.85
2019-05-02T22:00:02.515Z,88.33
2019-05-02T22:04:06.231Z,87.47
2019-05-02T22:08:08.444Z,87.26
2019-05-02T22:12:11.982Z,86.78
2019-05-02T22:16:14.231Z,86.73
2019-05-02T22:20:17.424Z,86.79
2019-05-02T22:24:19.721Z,86.72
2019-05-02T22:28:22.246Z,86.85
2019-05-02T22:32:24.500Z,87.90
2019-05-02T22:36:26.774Z,88.07
2019-05-02T22:40:29.018Z,87.73
2019-05-02T22:44:32.463Z,87.12
2019-05-02T22:48:34.940Z,86.33
2019-05-02T22:52:37.276Z,86.10
2019-05-02T22:56:39.434Z,86.47
2019-05-02T23:00:41.749Z,87.16
2019-05-02T23:04:44.075Z,86.75
2019-05-02T23:08:46.632Z,87.53
2019-05-02T23:12:49.290Z,87.43
2019-05-02T23:16:52.841Z,87.60
2019-05-02T23:20:55.373Z,87.70
2019-05-02T23:25:17.024Z,86.86
2019-05-02T23:29:19.567Z,85.66
2019-05-02T23:33:23.508Z,85.99
2019-05-02T23:37:25.820Z,86.21
2019-05-02T23:41:28.119Z,85.56
2019-05-02T23:45:31.593Z,85.96
2019-05-02T23:49:37.289Z,85.46
2019-05-02T23:53:39.630Z,85.41
2019-05-02T23:57:42.261Z,85.62
